createdAt,value
2022-12-24T00:01:38.193Z,21.00
2022-12-24T00:04:06.664Z,23.00
2022-12-24T00:06:35.221Z,24.00
2022-12-24T00:09:04.061Z,26.00
2022-12-24T00:11:32.406Z,29.00
2022-12-24T00:14:00.778Z,26.25
2022-12-24T00:16:29.584Z,25.75
2022-12-24T00:18:58.020Z,27.50
2022-12-24T00:21:26.377Z,28.75
2022-12-24T00:23:54.783Z,25.75
2022-12-24T00:26:23.066Z,31.25
2022-12-24T00:28:51.577Z,29.00
2022-12-24T00:31:20.822Z,32.00
2022-12-24T00:33:49.756Z,38.25
2022-12-24T00:36:19.045Z,35.00
2022-12-24T00:38:47.870Z,31.25
2022-12-24T00:41:26.141Z,29.50
2022-12-24T00:44:03.666Z,31.25
2022-12-24T00:46:33.481Z,30.00
2022-12-24T00:49:02.662Z,31.25
2022-12-24T00:51:31.337Z,29.25
2022-12-24T00:54:00.483Z,29.75
2022-12-24T00:56:28.902Z,28.50
2022-12-24T00:58:57.546Z,29.00
2022-12-24T01:01:27.271Z,27.00
2022-12-24T01:04:18.771Z,30.50
2022-12-24T01:06:47.195Z,29.50
2022-12-24T01:09:15.560Z,27.50
2022-12-24T01:11:43.858Z,30.25
2022-12-24T01:14:12.167Z,24.25
2022-12-24T01:16:43.606Z,27.50
2022-12-24T01:19:12.252Z,23.25
2022-12-24T01:21:40.560Z,27.50
2022-12-24T01:24:08.932Z,23.50
2022-12-24T01:26:37.220Z,18.75
2022-12-24T01:29:05.591Z,20.25
2022-12-24T01:31:34.165Z,21.00
2022-12-24T01:34:02.647Z,26.00
2022-12-24T01:36:30.993Z,18.50
2022-12-24T01:38:59.484Z,24.00
2022-12-24T01:41:46.141Z,21.25
2022-12-24T01:44:35.186Z,22.75
2022-12-24T01:47:13.069Z,22.00
2022-12-24T01:49:45.965Z,23.00
2022-12-24T01:52:28.266Z,22.75
2022-12-24T01:55:15.597Z,21.25
2022-12-24T01:57:51.638Z,23.00
2022-12-24T02:00:20.450Z,20.00
2022-12-24T02:02:51.990Z,16.25
2022-12-24T02:05:33.249Z,21.00
2022-12-24T02:08:03.663Z,18.25
2022-12-24T02:10:32.375Z,17.25
2022-12-24T02:13:03.446Z,21.25
2022-12-24T02:15:50.605Z,18.75
2022-12-24T02:18:34.366Z,18.00
2022-12-24T02:21:29.698Z,20.75
2022-12-24T02:24:14.655Z,19.00
2022-12-24T02:26:56.944Z,17.75
2022-12-24T02:29:33.954Z,16.50
2022-12-24T02:32:13.920Z,17.00
2022-12-24T02:35:05.499Z,18.00
2022-12-24T02:37:39.299Z,17.00
2022-12-24T02:40:17.087Z,16.00
2022-12-24T02:42:51.837Z,17.25
2022-12-24T02:45:33.906Z,14.00
2022-12-24T02:48:03.018Z,17.50
2022-12-24T02:50:31.326Z,19.50
2022-12-24T02:52:59.609Z,14.00
2022-12-24T02:55:54.547Z,18.25
2022-12-24T02:58:38.805Z,15.50
2022-12-24T03:01:18.751Z,14.50
2022-12-24T03:03:59.695Z,15.00
2022-12-24T03:06:48.980Z,15.25
2022-12-24T03:09:28.550Z,13.25
2022-12-24T03:12:08.620Z,13.00
2022-12-24T03:14:38.135Z,13.00
2022-12-24T03:17:06.871Z,13.00
2022-12-24T03:19:36.521Z,12.50
2022-12-24T03:22:11.016Z,15.00
2022-12-24T03:24:39.763Z,13.00
2022-12-24T03:27:10.908Z,15.50
2022-12-24T03:29:42.126Z,16.00
2022-12-24T03:32:10.487Z,13.00
2022-12-24T03:34:38.788Z,13.50
2022-12-24T03:37:07.084Z,13.50
2022-12-24T03:39:35.394Z,12.25
2022-12-24T03:42:03.682Z,10.50
2022-12-24T03:44:34.543Z,12.00
2022-12-24T03:47:02.906Z,13.00
2022-12-24T03:49:31.673Z,12.00
2022-12-24T03:51:59.988Z,10.00
2022-12-24T03:54:31.420Z,13.25
2022-12-24T03:56:59.834Z,9.75
2022-12-24T03:59:28.755Z,10.00
2022-12-24T04:02:00.570Z,9.75
2022-12-24T04:04:28.979Z,9.75
2022-12-24T04:06:57.308Z,11.25
2022-12-24T04:09:25.620Z,11.50
2022-12-24T04:11:53.893Z,10.25
2022-12-24T04:14:22.264Z,9.75
2022-12-24T04:16:50.612Z,10.00
2022-12-24T04:19:18.998Z,8.75
2022-12-24T04:21:47.309Z,8.00
2022-12-24T04:24:15.684Z,8.75
2022-12-24T04:26:44.039Z,11.50
2022-12-24T04:29:12.319Z,10.50
2022-12-24T04:31:40.670Z,8.00
2022-12-24T04:34:08.991Z,8.50
2022-12-24T04:36:37.308Z,9.75
2022-12-24T04:39:05.649Z,11.00
2022-12-24T04:41:34.154Z,11.75
2022-12-24T04:44:02.486Z,8.50
2022-12-24T04:46:31.635Z,8.50
2022-12-24T04:49:00.632Z,8.50
2022-12-24T04:51:30.666Z,7.25
2022-12-24T04:53:59.511Z,9.00
2022-12-24T04:56:31.194Z,8.00
2022-12-24T04:59:01.266Z,8.75
2022-12-24T05:01:32.141Z,9.75
2022-12-24T05:04:01.104Z,8.75
2022-12-24T05:06:33.296Z,7.75
2022-12-24T05:09:02.087Z,8.75
2022-12-24T05:11:30.800Z,9.00
2022-12-24T05:13:59.231Z,9.00
2022-12-24T05:16:27.858Z,8.75
2022-12-24T05:18:56.495Z,7.50
2022-12-24T05:21:26.086Z,8.75
2022-12-24T05:24:13.015Z,6.00
2022-12-24T05:26:48.213Z,7.75
2022-12-24T05:29:16.897Z,8.00
2022-12-24T05:31:46.171Z,7.25
2022-12-24T05:34:16.023Z,7.50
2022-12-24T05:36:45.438Z,7.00
2022-12-24T05:39:18.591Z,6.75
2022-12-24T05:41:47.601Z,6.75
2022-12-24T05:44:17.120Z,6.75
2022-12-24T05:46:46.059Z,9.75
2022-12-24T05:49:14.897Z,10.00
2022-12-24T05:51:43.456Z,8.25
2022-12-24T05:54:11.831Z,7.00
2022-12-24T05:56:40.184Z,7.75
2022-12-24T05:59:08.610Z,8.25
2022-12-24T06:01:37.208Z,7.25
2022-12-24T06:04:06.002Z,7.00
2022-12-24T06:06:34.441Z,7.00
2022-12-24T06:09:02.801Z,7.25
2022-12-24T06:11:31.528Z,7.00
2022-12-24T06:13:59.873Z,5.25
2022-12-24T06:16:28.230Z,8.75
2022-12-24T06:18:56.941Z,6.25
2022-12-24T06:21:25.287Z,5.75
2022-12-24T06:23:53.926Z,7.75
2022-12-24T06:26:24.193Z,8.50
2022-12-24T06:28:53.298Z,7.25
2022-12-24T06:31:24.141Z,6.00
2022-12-24T06:33:53.409Z,5.00
2022-12-24T06:36:24.906Z,8.00
2022-12-24T06:38:54.926Z,4.75
2022-12-24T06:41:24.496Z,7.25
2022-12-24T06:43:54.173Z,5.00
2022-12-24T06:46:22.762Z,8.25
2022-12-24T06:48:51.582Z,6.75
2022-12-24T06:51:21.269Z,7.00
2022-12-24T06:53:53.978Z,5.75
2022-12-24T06:56:22.919Z,7.50
2022-12-24T06:58:51.473Z,5.50
2022-12-24T07:01:21.392Z,6.75
2022-12-24T07:03:49.999Z,7.00
2022-12-24T07:06:30.651Z,10.75
2022-12-24T07:08:59.046Z,6.75
2022-12-24T07:11:27.837Z,7.25
2022-12-24T07:13:56.100Z,5.75
2022-12-24T07:16:24.607Z,7.00
2022-12-24T07:18:52.979Z,8.00
2022-12-24T07:21:24.392Z,7.50
2022-12-24T07:23:52.677Z,7.00
2022-12-24T07:26:21.129Z,7.50
2022-12-24T07:28:49.793Z,5.75
2022-12-24T07:31:18.196Z,6.75
2022-12-24T07:33:46.527Z,5.00
2022-12-24T07:36:21.762Z,5.50
2022-12-24T07:38:50.655Z,5.75
2022-12-24T07:41:19.016Z,6.75
2022-12-24T07:43:47.608Z,6.00
2022-12-24T07:46:16.157Z,6.25
2022-12-24T07:48:44.503Z,7.00
2022-12-24T07:51:12.799Z,5.75
2022-12-24T07:53:41.149Z,7.00
2022-12-24T07:56:12.882Z,5.75
2022-12-24T07:58:41.997Z,6.75
2022-12-24T08:01:11.411Z,7.00
2022-12-24T08:03:40.049Z,8.00
2022-12-24T08:06:09.015Z,7.00
2022-12-24T08:08:38.543Z,7.75
2022-12-24T08:11:08.378Z,7.25
2022-12-24T08:13:36.933Z,5.75
2022-12-24T08:16:05.526Z,6.75
2022-12-24T08:18:34.911Z,6.00
2022-12-24T08:21:03.229Z,7.00
2022-12-24T08:23:31.533Z,6.25
2022-12-24T08:25:59.859Z,6.25
2022-12-24T08:28:28.220Z,8.50
2022-12-24T08:30:56.590Z,7.25
2022-12-24T08:33:24.886Z,7.00
2022-12-24T08:35:55.821Z,7.00
2022-12-24T08:38:25.219Z,5.25
2022-12-24T08:40:55.356Z,6.25
2022-12-24T08:43:27.021Z,9.75
2022-12-24T08:45:55.490Z,6.50
2022-12-24T08:48:23.870Z,7.00
2022-12-24T08:50:52.213Z,7.00
2022-12-24T08:53:20.546Z,6.75
2022-12-24T08:55:55.621Z,7.00
2022-12-24T08:58:24.630Z,8.00
2022-12-24T09:00:53.181Z,8.00
2022-12-24T09:03:27.311Z,9.00
2022-12-24T09:05:56.971Z,8.00
2022-12-24T09:08:25.371Z,8.75
2022-12-24T09:10:53.696Z,10.00
2022-12-24T09:13:22.029Z,9.00
2022-12-24T09:15:57.025Z,6.75
2022-12-24T09:18:26.051Z,7.75
2022-12-24T09:21:00.775Z,7.25
2022-12-24T09:23:29.371Z,8.50
2022-12-24T09:25:57.888Z,7.75
2022-12-24T09:28:26.380Z,8.00
2022-12-24T09:31:02.757Z,8.00
2022-12-24T09:33:34.385Z,9.50
2022-12-24T09:36:03.772Z,8.25
2022-12-24T09:38:32.132Z,10.00
2022-12-24T09:41:07.147Z,9.50
2022-12-24T09:43:38.926Z,11.25
2022-12-24T09:46:29.068Z,7.75
2022-12-24T09:49:03.529Z,8.75
2022-12-24T09:51:42.227Z,9.00
2022-12-24T09:54:26.929Z,8.75
2022-12-24T09:56:58.234Z,8.00
2022-12-24T09:59:34.313Z,9.00
2022-12-24T10:02:02.945Z,8.75
2022-12-24T10:04:34.688Z,7.50
2022-12-24T10:07:40.068Z,9.75
2022-12-24T10:10:18.662Z,10.00
2022-12-24T10:12:53.101Z,9.75
2022-12-24T10:15:58.280Z,9.00
2022-12-24T10:18:49.110Z,9.00
2022-12-24T10:21:36.315Z,8.00
2022-12-24T10:24:15.311Z,8.50
2022-12-24T10:27:28.174Z,7.50
2022-12-24T10:30:04.990Z,7.25
2022-12-24T10:32:35.891Z,8.00
2022-12-24T10:35:20.753Z,7.75
2022-12-24T10:37:50.636Z,10.50
2022-12-24T10:40:32.082Z,9.00
2022-12-24T10:43:00.408Z,8.75
2022-12-24T10:45:38.740Z,11.00
2022-12-24T10:48:14.235Z,15.00
2022-12-24T10:50:57.266Z,23.50
2022-12-24T10:53:34.323Z,29.00
2022-12-24T10:56:08.968Z,23.00
2022-12-24T10:58:38.038Z,21.25
2022-12-24T11:01:06.613Z,14.50
2022-12-24T11:03:37.799Z,19.50
2022-12-24T11:06:09.771Z,14.25
2022-12-24T11:08:41.446Z,13.75
2022-12-24T11:11:14.609Z,14.50
2022-12-24T11:13:51.704Z,11.50
2022-12-24T11:16:32.169Z,11.00
2022-12-24T11:19:04.219Z,11.50
2022-12-24T11:21:39.822Z,8.25
2022-12-24T11:24:08.274Z,10.25
2022-12-24T11:26:36.881Z,12.25
2022-12-24T11:29:17.211Z,10.25
2022-12-24T11:31:46.872Z,10.50
2022-12-24T11:34:33.548Z,10.25
2022-12-24T11:37:17.155Z,8.25
2022-12-24T11:39:50.919Z,9.00
2022-12-24T11:42:41.719Z,9.50
2022-12-24T11:45:25.837Z,7.75
2022-12-24T11:47:55.165Z,8.25
2022-12-24T11:50:33.547Z,8.00
2022-12-24T11:53:04.845Z,7.00
2022-12-24T11:55:56.726Z,8.00
2022-12-24T11:58:36.842Z,7.00
2022-12-24T12:01:21.913Z,6.75
2022-12-24T12:03:56.016Z,8.75
2022-12-24T12:06:48.911Z,8.50
2022-12-24T12:09:42.880Z,8.00
2022-12-24T12:12:20.268Z,6.25
2022-12-24T12:14:55.806Z,6.75
2022-12-24T12:18:03.953Z,8.00
2022-12-24T12:21:03.449Z,5.75
2022-12-24T12:23:37.050Z,6.25
2022-12-24T12:26:15.288Z,6.25
2022-12-24T12:28:55.756Z,5.75
2022-12-24T12:31:49.505Z,7.00
2022-12-24T12:34:29.638Z,6.50
2022-12-24T12:37:22.448Z,5.25
2022-12-24T12:39:50.817Z,6.25
2022-12-24T12:42:31.008Z,6.00
2022-12-24T12:45:01.946Z,8.25
2022-12-24T12:47:53.697Z,6.00
2022-12-24T12:50:30.834Z,4.75
2022-12-24T12:53:43.773Z,5.00
2022-12-24T12:56:37.777Z,7.25
2022-12-24T12:59:12.843Z,6.75
2022-12-24T13:02:17.848Z,7.00
2022-12-24T13:05:10.514Z,6.00
2022-12-24T13:08:18.993Z,7.25
2022-12-24T13:10:50.323Z,5.25
2022-12-24T13:13:56.058Z,7.50
2022-12-24T13:16:46.870Z,5.75
2022-12-24T13:19:37.688Z,6.50
2022-12-24T13:22:14.915Z,7.00
2022-12-24T13:24:53.491Z,6.25
2022-12-24T13:27:24.719Z,6.00
2022-12-24T13:30:23.663Z,4.00
2022-12-24T13:32:55.108Z,5.75
2022-12-24T13:35:23.390Z,5.25
2022-12-24T13:37:52.769Z,5.75
2022-12-24T13:40:28.733Z,6.00
2022-12-24T13:42:59.864Z,5.75
2022-12-24T13:45:34.250Z,7.75
2022-12-24T13:48:04.221Z,5.50
2022-12-24T13:50:47.309Z,7.50
2022-12-24T13:53:21.606Z,5.75
2022-12-24T13:56:19.094Z,6.25
2022-12-24T13:58:55.839Z,6.00
2022-12-24T14:01:36.134Z,6.75
2022-12-24T14:04:06.670Z,6.25
2022-12-24T14:06:43.439Z,7.50
2022-12-24T14:09:19.325Z,5.50
2022-12-24T14:12:03.073Z,6.50
2022-12-24T14:14:40.695Z,5.00
2022-12-24T14:17:21.087Z,5.25
2022-12-24T14:20:01.147Z,6.00
2022-12-24T14:22:39.724Z,6.50
2022-12-24T14:25:17.513Z,7.25
2022-12-24T14:27:51.597Z,6.75
2022-12-24T14:30:28.737Z,7.00
2022-12-24T14:32:57.601Z,6.00
2022-12-24T14:35:29.899Z,6.00
2022-12-24T14:38:19.547Z,6.50
2022-12-24T14:41:02.234Z,5.25
2022-12-24T14:43:50.302Z,7.75
2022-12-24T14:46:39.670Z,6.00
2022-12-24T14:49:31.704Z,6.25
2022-12-24T14:53:02.821Z,7.00
2022-12-24T14:55:45.623Z,6.00
2022-12-24T14:58:32.884Z,6.50
2022-12-24T15:01:20.679Z,7.25
2022-12-24T15:04:02.639Z,7.50
2022-12-24T15:06:35.872Z,7.00
2022-12-24T15:09:04.777Z,6.50
2022-12-24T15:11:33.520Z,7.00
2022-12-24T15:14:02.402Z,7.00
2022-12-24T15:16:35.223Z,6.75
2022-12-24T15:19:07.085Z,9.00
2022-12-24T15:21:42.261Z,6.00
2022-12-24T15:24:29.711Z,6.75
2022-12-24T15:26:58.282Z,7.75
2022-12-24T15:29:29.435Z,6.00
2022-12-24T15:32:00.729Z,7.00
2022-12-24T15:34:39.312Z,6.75
2022-12-24T15:37:29.417Z,7.00
2022-12-24T15:40:03.567Z,7.00
2022-12-24T15:42:32.155Z,8.75
2022-12-24T15:45:02.950Z,6.75
2022-12-24T15:47:39.080Z,8.50
2022-12-24T15:50:18.351Z,6.75
2022-12-24T15:52:47.989Z,7.00
2022-12-24T15:55:44.867Z,7.75
2022-12-24T15:58:31.754Z,7.75
2022-12-24T16:01:19.804Z,9.00
2022-12-24T16:03:54.532Z,8.00
2022-12-24T16:06:24.178Z,8.50
2022-12-24T16:08:52.849Z,8.75
2022-12-24T16:11:22.857Z,8.50
2022-12-24T16:14:02.421Z,8.00
2022-12-24T16:16:37.667Z,9.25
2022-12-24T16:19:08.117Z,8.50
2022-12-24T16:21:42.437Z,8.00
2022-12-24T16:24:22.039Z,8.25
2022-12-24T16:26:50.689Z,7.00
2022-12-24T16:29:20.432Z,8.75
2022-12-24T16:31:53.154Z,9.00
2022-12-24T16:34:26.485Z,7.50
2022-12-24T16:36:55.758Z,8.50
2022-12-24T16:39:31.740Z,8.75
2022-12-24T16:42:20.834Z,8.75
2022-12-24T16:44:49.642Z,8.00
2022-12-24T16:47:33.753Z,7.25
2022-12-24T16:50:08.417Z,11.00
2022-12-24T16:52:36.759Z,11.00
2022-12-24T16:55:05.473Z,8.50
2022-12-24T16:57:35.253Z,9.00
2022-12-24T17:00:09.945Z,6.75
2022-12-24T17:02:38.397Z,8.50
2022-12-24T17:05:07.408Z,9.00
2022-12-24T17:07:41.213Z,8.50
2022-12-24T17:10:13.529Z,10.00
2022-12-24T17:12:41.945Z,8.00
2022-12-24T17:15:10.794Z,10.00
2022-12-24T17:17:39.715Z,10.25
2022-12-24T17:20:08.800Z,9.00
2022-12-24T17:22:37.908Z,9.75
2022-12-24T17:25:07.683Z,8.75
2022-12-24T17:27:36.142Z,7.00
2022-12-24T17:30:04.950Z,10.50
2022-12-24T17:32:34.000Z,6.50
2022-12-24T17:35:03.318Z,11.00
2022-12-24T17:37:31.634Z,10.00
2022-12-24T17:39:59.981Z,9.00
2022-12-24T17:42:28.273Z,10.50
2022-12-24T17:44:56.682Z,7.00
2022-12-24T17:47:25.261Z,9.00
2022-12-24T17:49:53.647Z,8.50
2022-12-24T17:52:21.977Z,10.00
2022-12-24T17:54:50.347Z,9.25
2022-12-24T17:57:18.614Z,9.50
2022-12-24T17:59:46.982Z,10.50
2022-12-24T18:02:15.315Z,9.00
2022-12-24T18:04:43.671Z,9.50
2022-12-24T18:07:11.965Z,10.00
2022-12-24T18:09:40.471Z,10.75
2022-12-24T18:12:08.891Z,12.00
2022-12-24T18:14:37.184Z,9.25
2022-12-24T18:17:05.627Z,9.00
2022-12-24T18:19:33.994Z,9.75
2022-12-24T18:22:02.275Z,10.25
2022-12-24T18:24:30.561Z,8.50
2022-12-24T18:26:58.935Z,9.25
2022-12-24T18:29:27.230Z,8.00
2022-12-24T18:31:55.632Z,11.25
2022-12-24T18:34:24.226Z,9.75
2022-12-24T18:39:38.794Z,9.00
2022-12-24T18:44:58.939Z,8.50
2022-12-24T18:47:34.323Z,8.25
2022-12-24T18:55:50.617Z,9.25
2022-12-24T19:12:23.100Z,11.00
2022-12-24T19:15:12.688Z,12.25
2022-12-24T19:17:50.141Z,9.00
2022-12-24T19:20:23.432Z,12.50
2022-12-24T19:22:55.003Z,11.50
2022-12-24T19:25:28.143Z,8.25
2022-12-24T19:28:10.510Z,11.00
2022-12-24T19:31:04.562Z,11.00
2022-12-24T19:33:44.308Z,14.75
2022-12-24T19:39:15.445Z,13.25
2022-12-24T19:44:45.482Z,10.50
2022-12-24T19:47:13.795Z,12.50
2022-12-24T19:49:42.094Z,13.50
2022-12-24T19:52:10.437Z,11.00
2022-12-24T19:54:38.769Z,13.00
2022-12-24T19:57:09.824Z,11.75
2022-12-24T19:59:50.643Z,11.50
2022-12-24T20:02:19.919Z,13.50
2022-12-24T20:04:49.453Z,12.50
2022-12-24T20:07:21.754Z,13.00
2022-12-24T20:10:01.020Z,12.25
2022-12-24T20:12:32.320Z,15.25
2022-12-24T20:17:42.619Z,14.50
2022-12-24T20:20:11.088Z,14.25
2022-12-24T20:22:39.513Z,14.25
2022-12-24T20:25:08.382Z,13.50
2022-12-24T20:27:36.781Z,14.50
2022-12-24T20:30:08.340Z,12.25
2022-12-24T20:35:24.906Z,15.25
2022-12-24T20:40:36.297Z,14.75
2022-12-24T20:45:54.250Z,9.75
2022-12-24T20:51:21.021Z,11.25
2022-12-24T20:54:02.182Z,13.00
2022-12-24T20:56:37.172Z,12.75
2022-12-24T20:59:15.792Z,10.50
2022-12-24T21:04:40.536Z,11.00
2022-12-24T21:07:21.910Z,11.50
2022-12-24T21:09:52.711Z,12.75
2022-12-24T21:12:40.362Z,12.50
2022-12-24T21:15:19.690Z,11.00
2022-12-24T21:18:12.822Z,11.75
2022-12-24T21:23:34.859Z,9.00
2022-12-24T21:26:09.525Z,9.00
2022-12-24T21:31:34.031Z,12.00
2022-12-24T21:36:44.149Z,12.50
2022-12-24T21:39:12.482Z,11.75
2022-12-24T21:41:40.819Z,11.00
2022-12-24T21:44:09.187Z,11.00
2022-12-24T21:46:37.574Z,12.75
2022-12-24T21:49:24.228Z,13.75
2022-12-24T21:51:52.516Z,10.25
2022-12-24T21:54:32.753Z,12.25
2022-12-24T21:57:24.798Z,11.50
2022-12-24T21:59:57.592Z,13.00
2022-12-24T22:02:30.264Z,13.25
2022-12-24T22:04:58.836Z,11.25
2022-12-24T22:07:47.507Z,13.00
2022-12-24T22:10:34.326Z,12.75
2022-12-24T22:13:08.381Z,13.75
2022-12-24T22:15:42.775Z,10.75
2022-12-24T22:18:11.235Z,12.50
2022-12-24T22:20:41.019Z,10.50
2022-12-24T22:23:09.872Z,13.00
2022-12-24T22:25:38.722Z,11.75
2022-12-24T22:28:07.541Z,11.25
2022-12-24T22:30:40.337Z,10.75
2022-12-24T22:33:09.629Z,13.00
2022-12-24T22:35:41.844Z,10.75
2022-12-24T22:38:11.079Z,12.25
2022-12-24T22:40:42.447Z,13.50
2022-12-24T22:43:11.248Z,11.75
2022-12-24T22:45:41.170Z,11.50
2022-12-24T22:48:09.716Z,12.75
2022-12-24T22:50:41.835Z,13.50
2022-12-24T22:53:10.145Z,17.25
2022-12-24T22:55:38.801Z,19.00
2022-12-24T22:58:07.135Z,18.75
2022-12-24T23:00:42.479Z,19.75
2022-12-24T23:03:11.691Z,16.25
2022-12-24T23:05:40.584Z,17.50
2022-12-24T23:08:09.309Z,12.75
2022-12-24T23:10:38.425Z,17.25
2022-12-24T23:13:25.866Z,16.25
2022-12-24T23:15:54.249Z,15.50
2022-12-24T23:18:22.585Z,14.50
2022-12-24T23:20:50.863Z,14.75
2022-12-24T23:23:19.137Z,20.25
2022-12-24T23:25:47.435Z,16.00
2022-12-24T23:28:15.895Z,18.00
2022-12-24T23:30:44.284Z,18.00
2022-12-24T23:33:12.620Z,20.75
2022-12-24T23:35:40.927Z,17.25
2022-12-24T23:38:09.242Z,18.00
2022-12-24T23:40:37.617Z,16.50
2022-12-24T23:43:05.933Z,16.25
2022-12-24T23:45:34.300Z,17.25
2022-12-24T23:48:02.611Z,20.00
2022-12-24T23:50:30.919Z,15.75
2022-12-24T23:52:59.201Z,20.50
2022-12-24T23:55:28.179Z,22.75
2022-12-24T23:57:56.507Z,22.75
